createdAt,value
2018-12-24T00:00:22.669Z,11.40
2018-12-24T00:02:54.809Z,10.83
2018-12-24T00:05:26.459Z,11.47
2018-12-24T00:07:58.062Z,11.17
2018-12-24T00:10:29.647Z,10.60
2018-12-24T00:13:02.126Z,11.20
2018-12-24T00:15:34.115Z,10.93
2018-12-24T00:18:06.441Z,11.47
2018-12-24T00:20:38.113Z,11.20
2018-12-24T00:23:09.919Z,10.67
2018-12-24T00:25:41.759Z,10.30
2018-12-24T00:28:15.792Z,10.58
2018-12-24T00:30:48.342Z,11.03
2018-12-24T00:33:22.884Z,10.90
2018-12-24T00:35:56.022Z,10.73
2018-12-24T00:38:28.035Z,10.63
2018-12-24T00:41:00.080Z,10.77
2018-12-24T00:43:31.921Z,10.30
2018-12-24T00:46:03.548Z,9.90
2018-12-24T00:48:35.404Z,10.60
2018-12-24T00:51:07.425Z,10.47
2018-12-24T00:53:39.145Z,10.47
2018-12-24T00:56:10.794Z,9.95
2018-12-24T00:58:42.801Z,10.07
2018-12-24T01:01:14.550Z,9.97
2018-12-24T01:03:46.219Z,9.17
2018-12-24T01:06:19.422Z,9.25
2018-12-24T01:08:51.412Z,8.90
2018-12-24T01:12:05.726Z,8.40
2018-12-24T01:14:37.296Z,8.33
2018-12-24T01:17:08.292Z,7.30
2018-12-24T01:19:39.478Z,7.93
2018-12-24T01:22:10.616Z,7.33
2018-12-24T01:24:42.027Z,7.62
2018-12-24T01:27:13.955Z,7.17
2018-12-24T01:29:45.025Z,5.93
2018-12-24T01:32:16.101Z,6.80
2018-12-24T01:34:47.407Z,6.40
2018-12-24T01:37:19.165Z,6.55
2018-12-24T01:39:50.523Z,6.03
2018-12-24T01:42:21.743Z,6.00
2018-12-24T01:44:53.137Z,5.80
2018-12-24T01:47:26.809Z,6.27
2018-12-24T01:49:58.363Z,6.07
2018-12-24T01:52:31.406Z,6.13
2018-12-24T01:55:03.068Z,6.20
2018-12-24T01:57:34.260Z,5.47
2018-12-24T02:00:06.174Z,5.53
2018-12-24T02:02:37.322Z,5.90
2018-12-24T02:05:08.713Z,5.63
2018-12-24T02:07:39.887Z,6.30
2018-12-24T02:10:11.265Z,6.17
2018-12-24T02:12:43.352Z,5.87
2018-12-24T02:15:14.466Z,4.87
2018-12-24T02:17:46.345Z,5.77
2018-12-24T02:20:17.979Z,5.92
2018-12-24T02:22:49.382Z,5.33
2018-12-24T02:25:20.574Z,5.80
2018-12-24T02:27:52.486Z,6.60
2018-12-24T02:30:24.167Z,5.67
2018-12-24T02:32:55.419Z,6.23
2018-12-24T02:35:26.604Z,6.17
2018-12-24T02:37:59.166Z,6.47
2018-12-24T02:40:30.952Z,6.20
2018-12-24T02:43:02.478Z,6.00
2018-12-24T02:45:34.177Z,6.13
2018-12-24T02:48:06.310Z,6.87
2018-12-24T02:50:37.636Z,6.43
2018-12-24T02:53:09.077Z,6.50
2018-12-24T02:55:40.361Z,6.67
2018-12-24T02:58:11.787Z,6.70
2018-12-24T03:00:43.078Z,7.27
2018-12-24T03:03:14.433Z,7.07
2018-12-24T03:05:47.773Z,7.53
2018-12-24T03:08:19.167Z,7.20
2018-12-24T03:10:52.308Z,7.90
2018-12-24T03:13:24.644Z,7.70
2018-12-24T03:15:56.423Z,7.90
2018-12-24T03:18:27.876Z,7.40
2018-12-24T03:20:59.674Z,7.67
2018-12-24T03:23:31.081Z,7.55
2018-12-24T03:26:02.464Z,7.80
2018-12-24T03:28:33.877Z,7.97
2018-12-24T03:31:05.147Z,8.13
2018-12-24T03:33:37.057Z,8.23
2018-12-24T03:36:08.145Z,8.40
2018-12-24T03:38:39.818Z,8.20
2018-12-24T03:41:11.316Z,8.40
2018-12-24T03:43:42.488Z,9.03
2018-12-24T03:46:13.877Z,9.18
2018-12-24T03:48:45.085Z,9.90
2018-12-24T03:51:16.802Z,9.20
2018-12-24T03:53:47.932Z,10.43
2018-12-24T03:56:20.001Z,9.88
2018-12-24T03:58:51.384Z,10.57
2018-12-24T04:01:22.678Z,10.78
2018-12-24T04:03:54.045Z,11.00
2018-12-24T04:06:25.889Z,10.80
2018-12-24T04:08:57.355Z,11.50
2018-12-24T04:11:28.837Z,11.70
2018-12-24T04:13:59.900Z,11.73
2018-12-24T04:16:32.938Z,12.53
2018-12-24T04:19:04.940Z,12.27
2018-12-24T04:21:36.659Z,13.08
2018-12-24T04:24:07.927Z,13.37
2018-12-24T04:26:40.155Z,12.80
2018-12-24T04:29:12.074Z,13.53
2018-12-24T04:31:43.342Z,13.37
2018-12-24T04:34:14.736Z,14.25
2018-12-24T04:36:46.686Z,13.07
2018-12-24T04:39:17.876Z,13.88
2018-12-24T04:41:49.315Z,12.40
2018-12-24T04:44:20.572Z,12.20
2018-12-24T04:46:51.777Z,11.67
2018-12-24T04:49:22.993Z,12.53
2018-12-24T04:51:54.275Z,10.40
2018-12-24T04:54:25.664Z,11.47
2018-12-24T04:56:56.944Z,10.70
2018-12-24T04:59:28.512Z,9.87
2018-12-24T05:01:59.752Z,9.50
2018-12-24T05:04:30.943Z,6.83
2018-12-24T05:07:02.837Z,6.40
2018-12-24T05:09:34.329Z,5.97
2018-12-24T05:12:06.308Z,5.40
2018-12-24T05:14:39.530Z,5.20
2018-12-24T05:17:11.068Z,5.20
2018-12-24T05:19:42.703Z,5.73
2018-12-24T05:22:14.235Z,5.23
2018-12-24T05:24:45.342Z,5.43
2018-12-24T05:27:17.045Z,5.70
2018-12-24T05:29:48.513Z,6.20
2018-12-24T05:32:19.989Z,6.63
2018-12-24T05:34:51.040Z,7.17
2018-12-24T05:37:22.521Z,7.87
2018-12-24T05:39:53.805Z,7.60
2018-12-24T05:42:25.163Z,8.70
2018-12-24T05:44:56.406Z,8.47
2018-12-24T05:47:27.673Z,8.57
2018-12-24T05:49:59.005Z,8.87
2018-12-24T05:52:30.221Z,9.03
2018-12-24T05:55:01.308Z,8.93
2018-12-24T05:57:34.809Z,8.20
2018-12-24T06:00:06.272Z,7.50
2018-12-24T06:02:37.576Z,7.80
2018-12-24T06:05:08.636Z,7.97
2018-12-24T06:07:39.813Z,8.60
2018-12-24T06:10:11.114Z,9.15
2018-12-24T06:12:42.629Z,7.80
2018-12-24T06:15:13.733Z,7.80
2018-12-24T06:17:45.067Z,7.93
2018-12-24T06:20:16.178Z,8.35
2018-12-24T06:22:47.416Z,8.93
2018-12-24T06:25:19.136Z,8.50
2018-12-24T06:27:51.493Z,7.77
2018-12-24T06:30:22.803Z,8.60
2018-12-24T06:32:54.251Z,8.37
2018-12-24T06:35:25.335Z,7.67
2018-12-24T06:37:57.127Z,7.95
2018-12-24T06:40:28.221Z,7.27
2018-12-24T06:42:59.338Z,7.70
2018-12-24T06:45:30.388Z,7.63
2018-12-24T06:48:01.474Z,6.53
2018-12-24T06:50:32.730Z,7.20
2018-12-24T06:53:04.392Z,6.97
2018-12-24T06:55:35.629Z,7.30
2018-12-24T06:58:06.745Z,7.90
2018-12-24T07:00:38.036Z,7.87
2018-12-24T07:03:10.528Z,8.30
2018-12-24T07:05:41.854Z,8.40
2018-12-24T07:08:13.040Z,8.60
2018-12-24T07:10:46.048Z,10.33
2018-12-24T07:13:17.831Z,9.35
2018-12-24T07:15:49.241Z,10.53
2018-12-24T07:18:21.851Z,8.57
2018-12-24T07:20:53.013Z,9.30
2018-12-24T07:23:24.303Z,8.07
2018-12-24T07:25:55.438Z,9.50
2018-12-24T07:28:27.326Z,10.13
2018-12-24T07:30:58.483Z,12.77
2018-12-24T07:33:29.622Z,13.77
2018-12-24T07:36:00.848Z,12.80
2018-12-24T07:38:31.929Z,14.73
2018-12-24T07:41:03.003Z,16.20
2018-12-24T07:43:34.073Z,17.17
2018-12-24T07:46:06.014Z,16.75
2018-12-24T07:48:37.225Z,18.90
2018-12-24T07:51:08.214Z,17.33
2018-12-24T07:53:40.194Z,14.63
2018-12-24T07:56:11.781Z,13.40
2018-12-24T07:58:43.160Z,13.93
2018-12-24T08:01:14.401Z,15.47
2018-12-24T08:03:45.758Z,16.80
2018-12-24T08:06:17.118Z,14.43
2018-12-24T08:08:48.529Z,12.30
2018-12-24T08:11:20.014Z,11.63
2018-12-24T08:13:51.467Z,12.83
2018-12-24T08:16:22.932Z,15.83
2018-12-24T08:18:54.270Z,16.57
2018-12-24T08:21:26.546Z,16.07
2018-12-24T08:23:57.880Z,13.83
2018-12-24T08:26:29.114Z,12.97
2018-12-24T08:29:00.362Z,13.10
2018-12-24T08:31:31.611Z,13.57
2018-12-24T08:34:03.081Z,13.40
2018-12-24T08:36:34.049Z,12.50
2018-12-24T08:39:07.810Z,9.95
2018-12-24T08:41:40.278Z,9.40
2018-12-24T08:44:11.314Z,8.65
2018-12-24T08:46:42.399Z,7.37
2018-12-24T08:49:13.712Z,5.75
2018-12-24T08:51:46.471Z,5.97
2018-12-24T08:54:18.567Z,5.73
2018-12-24T08:56:49.939Z,6.00
2018-12-24T08:59:21.185Z,5.83
2018-12-24T09:01:52.931Z,6.60
2018-12-24T09:04:24.273Z,5.97
2018-12-24T09:06:55.528Z,6.27
2018-12-24T09:09:27.184Z,6.40
2018-12-24T09:11:58.315Z,6.40
2018-12-24T09:14:29.432Z,6.20
2018-12-24T09:17:02.761Z,6.30
2018-12-24T09:19:34.081Z,8.20
2018-12-24T09:22:06.158Z,8.48
2018-12-24T09:24:37.419Z,7.50
2018-12-24T09:27:08.996Z,8.70
2018-12-24T09:29:40.222Z,9.10
2018-12-24T09:32:11.454Z,8.50
2018-12-24T09:34:42.915Z,7.93
2018-12-24T09:37:14.551Z,9.05
2018-12-24T09:39:46.793Z,10.53
2018-12-24T09:42:19.509Z,10.25
2018-12-24T09:44:58.728Z,8.70
2018-12-24T09:47:23.729Z,9.10
2018-12-24T09:49:55.190Z,10.00
2018-12-24T09:52:26.566Z,9.57
2018-12-24T09:54:57.700Z,9.63
2018-12-24T09:57:29.004Z,8.97
2018-12-24T10:00:00.358Z,10.07
2018-12-24T10:02:38.178Z,8.40
2018-12-24T10:05:10.100Z,8.90
2018-12-24T10:07:41.964Z,9.20
2018-12-24T10:10:18.192Z,10.10
2018-12-24T10:12:50.520Z,9.10
2018-12-24T10:15:21.676Z,10.00
2018-12-24T10:17:52.870Z,9.83
2018-12-24T10:20:24.122Z,10.80
2018-12-24T10:22:55.491Z,10.93
2018-12-24T10:25:26.671Z,11.33
2018-12-24T10:27:57.871Z,12.53
2018-12-24T10:30:30.102Z,10.40
2018-12-24T10:33:01.468Z,10.60
2018-12-24T10:35:33.146Z,10.40
2018-12-24T10:38:04.438Z,12.00
2018-12-24T10:40:42.352Z,11.30
2018-12-24T10:43:13.493Z,9.58
2018-12-24T10:45:45.033Z,10.23
2018-12-24T10:48:15.991Z,10.20
2018-12-24T10:50:47.170Z,11.60
2018-12-24T10:53:20.022Z,10.03
2018-12-24T10:55:51.448Z,9.73
2018-12-24T10:58:22.798Z,10.90
2018-12-24T11:00:53.861Z,11.50
2018-12-24T11:03:25.907Z,11.33
2018-12-24T11:05:57.107Z,9.10
2018-12-24T11:08:29.511Z,8.70
2018-12-24T11:11:01.006Z,7.80
2018-12-24T11:13:32.489Z,6.60
2018-12-24T11:16:03.656Z,5.90
2018-12-24T11:18:35.034Z,5.50
2018-12-24T11:21:06.854Z,6.90
2018-12-24T11:23:38.667Z,6.20
2018-12-24T11:26:09.933Z,7.63
2018-12-24T11:28:41.830Z,8.27
2018-12-24T11:31:13.027Z,7.70
2018-12-24T11:33:46.523Z,8.27
2018-12-24T11:36:17.688Z,8.53
2018-12-24T11:38:48.975Z,9.67
2018-12-24T11:41:20.433Z,9.28
2018-12-24T11:43:51.887Z,7.57
2018-12-24T11:46:23.243Z,7.83
2018-12-24T11:48:54.399Z,7.93
2018-12-24T11:51:25.989Z,6.93
2018-12-24T11:53:57.198Z,6.53
2018-12-24T11:56:28.654Z,7.43
2018-12-24T11:58:59.776Z,7.90
2018-12-24T12:01:31.107Z,8.37
2018-12-24T12:04:03.508Z,8.23
2018-12-24T12:06:34.613Z,8.85
2018-12-24T12:09:07.813Z,7.77
2018-12-24T12:11:39.266Z,6.80
2018-12-24T12:14:11.640Z,8.50
2018-12-24T12:16:43.210Z,7.12
2018-12-24T12:19:14.770Z,7.28
2018-12-24T12:21:46.991Z,7.58
2018-12-24T12:24:18.441Z,5.83
2018-12-24T12:26:50.669Z,4.33
2018-12-24T12:29:21.787Z,5.27
2018-12-24T12:31:53.009Z,4.63
2018-12-24T12:34:24.241Z,3.70
2018-12-24T12:36:55.890Z,3.90
2018-12-24T12:39:27.240Z,4.20
2018-12-24T12:41:58.402Z,4.03
2018-12-24T12:44:29.733Z,4.10
2018-12-24T12:47:01.181Z,3.73
2018-12-24T12:49:34.030Z,3.47
2018-12-24T12:52:07.206Z,4.90
2018-12-24T12:54:38.738Z,4.50
2018-12-24T12:57:09.945Z,4.67
2018-12-24T12:59:42.053Z,4.90
2018-12-24T13:02:13.347Z,4.90
2018-12-24T13:04:44.858Z,4.60
2018-12-24T13:07:17.547Z,4.73
2018-12-24T13:09:48.644Z,4.93
2018-12-24T13:12:19.893Z,3.90
2018-12-24T13:14:50.966Z,4.43
2018-12-24T13:17:22.246Z,4.73
2018-12-24T13:19:53.480Z,4.80
2018-12-24T13:22:24.617Z,6.17
2018-12-24T13:24:55.825Z,5.95
2018-12-24T13:27:27.409Z,4.77
2018-12-24T13:29:58.694Z,6.03
2018-12-24T13:32:29.788Z,6.25
2018-12-24T13:35:01.780Z,5.83
2018-12-24T13:37:33.034Z,6.53
2018-12-24T13:40:04.465Z,6.17
2018-12-24T13:42:35.783Z,7.83
2018-12-24T13:45:07.811Z,6.97
2018-12-24T13:47:39.205Z,8.50
2018-12-24T13:50:10.542Z,8.63
2018-12-24T13:52:41.699Z,7.07
2018-12-24T13:55:12.711Z,7.10
2018-12-24T13:57:43.999Z,7.20
2018-12-24T14:00:15.526Z,6.85
2018-12-24T14:02:46.755Z,7.07
2018-12-24T14:05:18.481Z,8.23
2018-12-24T14:07:50.419Z,7.43
2018-12-24T14:10:21.653Z,7.53
2018-12-24T14:12:53.977Z,7.67
2018-12-24T14:15:25.194Z,7.73
2018-12-24T14:17:56.274Z,11.73
2018-12-24T14:20:27.510Z,8.37
2018-12-24T14:22:58.806Z,9.47
2018-12-24T14:25:32.457Z,9.00
2018-12-24T14:28:04.235Z,9.28
2018-12-24T14:30:36.993Z,11.90
2018-12-24T14:33:08.211Z,11.77
2018-12-24T14:35:40.298Z,10.70
2018-12-24T14:38:11.630Z,10.73
2018-12-24T14:40:42.742Z,11.87
2018-12-24T14:43:15.333Z,12.23
2018-12-24T14:45:46.550Z,10.87
2018-12-24T14:48:18.777Z,12.13
2018-12-24T14:50:50.138Z,14.17
2018-12-24T14:53:21.350Z,14.35
2018-12-24T14:55:52.506Z,11.27
2018-12-24T14:58:23.881Z,11.80
2018-12-24T15:00:56.418Z,11.60
2018-12-24T15:03:27.804Z,12.60
2018-12-24T15:05:59.360Z,13.83
2018-12-24T15:08:30.594Z,15.07
2018-12-24T15:11:02.287Z,15.10
2018-12-24T15:13:33.334Z,14.67
2018-12-24T15:16:04.587Z,14.87
2018-12-24T15:18:35.762Z,15.07
2018-12-24T15:21:06.961Z,12.60
2018-12-24T15:23:39.576Z,16.57
2018-12-24T15:26:10.548Z,15.55
2018-12-24T15:28:41.644Z,14.60
2018-12-24T15:31:13.018Z,14.50
2018-12-24T15:33:45.350Z,16.30
2018-12-24T15:36:16.451Z,15.65
2018-12-24T15:38:47.770Z,15.88
2018-12-24T15:41:19.172Z,13.20
2018-12-24T15:43:50.479Z,12.43
2018-12-24T15:46:22.481Z,10.93
2018-12-24T15:48:53.733Z,12.20
2018-12-24T15:51:24.890Z,12.13
2018-12-24T15:53:58.038Z,12.43
2018-12-24T15:56:29.199Z,10.93
2018-12-24T15:59:00.516Z,13.87
2018-12-24T16:01:31.820Z,14.87
2018-12-24T16:04:03.256Z,15.15
2018-12-24T16:06:34.501Z,12.33
2018-12-24T16:09:07.849Z,11.95
2018-12-24T16:11:39.249Z,11.70
2018-12-24T16:14:10.651Z,12.30
2018-12-24T16:16:41.990Z,12.43
2018-12-24T16:19:13.124Z,12.60
2018-12-24T16:21:44.323Z,11.60
2018-12-24T16:24:16.137Z,12.28
2018-12-24T16:26:47.475Z,11.87
2018-12-24T16:29:18.739Z,11.23
2018-12-24T16:31:50.440Z,10.10
2018-12-24T16:34:21.709Z,10.57
2018-12-24T16:36:55.400Z,10.07
2018-12-24T16:39:26.912Z,12.17
2018-12-24T16:41:58.362Z,13.17
2018-12-24T16:44:29.519Z,11.97
2018-12-24T16:47:00.750Z,11.07
2018-12-24T16:49:32.293Z,12.10
2018-12-24T16:52:03.720Z,12.53
2018-12-24T16:54:34.846Z,13.60
2018-12-24T16:57:06.134Z,12.47
2018-12-24T16:59:37.680Z,12.53
2018-12-24T17:02:08.732Z,13.23
2018-12-24T17:04:40.203Z,13.70
2018-12-24T17:07:11.361Z,14.33
2018-12-24T17:09:43.123Z,13.53
2018-12-24T17:12:14.299Z,12.43
2018-12-24T17:14:45.654Z,12.60
2018-12-24T17:17:16.964Z,11.63
2018-12-24T17:19:48.972Z,12.90
2018-12-24T17:22:20.478Z,14.93
2018-12-24T17:24:51.741Z,14.63
2018-12-24T17:27:23.083Z,15.60
2018-12-24T17:29:54.403Z,15.13
2018-12-24T17:32:25.823Z,14.70
2018-12-24T17:34:57.662Z,14.87
2018-12-24T17:37:29.310Z,15.23
2018-12-24T17:40:01.954Z,15.70
2018-12-24T17:42:33.603Z,15.50
2018-12-24T17:45:04.933Z,15.50
2018-12-24T17:47:38.433Z,16.90
2018-12-24T17:50:09.915Z,17.90
2018-12-24T17:52:41.136Z,16.30
2018-12-24T17:55:12.736Z,16.77
2018-12-24T17:57:44.371Z,17.15
2018-12-24T18:00:15.872Z,18.20
2018-12-24T18:02:47.201Z,16.83
2018-12-24T18:05:18.614Z,16.80
2018-12-24T18:07:50.305Z,19.92
2018-12-24T18:10:21.752Z,17.67
2018-12-24T18:12:53.003Z,18.20
2018-12-24T18:15:24.349Z,19.20
2018-12-24T18:17:56.156Z,15.83
2018-12-24T18:20:29.432Z,14.80
2018-12-24T18:23:01.128Z,14.93
2018-12-24T18:25:32.707Z,15.60
2018-12-24T18:28:05.235Z,16.20
2018-12-24T18:30:37.050Z,15.40
2018-12-24T18:33:08.315Z,14.43
2018-12-24T18:35:40.913Z,14.27
2018-12-24T18:38:12.336Z,15.20
2018-12-24T18:40:43.616Z,15.57
2018-12-24T18:43:15.093Z,18.25
2018-12-24T18:45:46.376Z,15.10
2018-12-24T18:48:17.767Z,14.83
2018-12-24T18:50:49.216Z,14.57
2018-12-24T18:53:20.767Z,13.80
2018-12-24T18:55:53.152Z,14.03
2018-12-24T18:58:24.199Z,14.47
2018-12-24T19:00:55.435Z,14.37
2018-12-24T19:03:26.563Z,11.80
2018-12-24T19:05:57.694Z,13.03
2018-12-24T19:08:29.143Z,12.98
2018-12-24T19:11:00.794Z,14.33
2018-12-24T19:13:32.433Z,13.93
2018-12-24T19:16:03.704Z,14.93
2018-12-24T19:18:35.168Z,14.80
2018-12-24T19:21:06.411Z,16.30
2018-12-24T19:23:38.135Z,18.53
2018-12-24T19:26:09.543Z,14.30
2018-12-24T19:28:41.056Z,15.00
2018-12-24T19:31:12.512Z,15.03
2018-12-24T19:33:43.825Z,14.33
2018-12-24T19:36:15.359Z,13.27
2018-12-24T19:38:49.610Z,14.47
2018-12-24T19:41:20.956Z,14.87
2018-12-24T19:43:54.584Z,15.77
2018-12-24T19:46:26.571Z,15.50
2018-12-24T19:48:58.179Z,11.43
2018-12-24T19:51:29.744Z,11.43
2018-12-24T19:54:02.124Z,12.30
2018-12-24T19:56:34.172Z,12.47
2018-12-24T19:59:06.135Z,11.10
2018-12-24T20:01:38.964Z,11.13
2018-12-24T20:04:10.084Z,10.48
2018-12-24T20:06:41.517Z,10.77
2018-12-24T20:09:12.529Z,7.40
2018-12-24T20:11:43.899Z,8.60
2018-12-24T20:14:15.575Z,9.78
2018-12-24T20:16:47.300Z,9.30
2018-12-24T20:19:19.114Z,9.88
2018-12-24T20:21:50.507Z,10.07
2018-12-24T20:24:21.729Z,9.90
2018-12-24T20:26:53.110Z,9.47
2018-12-24T20:29:24.933Z,9.00
2018-12-24T20:31:56.531Z,9.00
2018-12-24T20:34:28.523Z,9.83
2018-12-24T20:37:00.198Z,10.03
2018-12-24T20:39:31.760Z,10.67
2018-12-24T20:42:03.334Z,9.77
2018-12-24T20:44:34.690Z,11.63
2018-12-24T20:47:05.913Z,11.23
2018-12-24T20:49:37.786Z,11.90
2018-12-24T20:52:10.668Z,11.12
2018-12-24T20:54:42.307Z,10.67
2018-12-24T20:57:14.249Z,10.50
2018-12-24T20:59:46.019Z,11.30
2018-12-24T21:02:17.912Z,10.58
2018-12-24T21:04:50.868Z,10.43
2018-12-24T21:07:22.505Z,11.55
2018-12-24T21:09:53.973Z,11.10
2018-12-24T21:12:25.675Z,12.03
2018-12-24T21:14:57.683Z,10.40
2018-12-24T21:17:28.849Z,11.53
2018-12-24T21:20:00.302Z,10.50
2018-12-24T21:22:31.446Z,10.63
2018-12-24T21:25:02.488Z,12.43
2018-12-24T21:27:33.738Z,10.50
2018-12-24T21:30:06.264Z,11.43
2018-12-24T21:32:39.069Z,10.97
2018-12-24T21:35:10.131Z,10.93
2018-12-24T21:37:41.415Z,10.50
2018-12-24T21:40:12.545Z,10.63
2018-12-24T21:42:43.628Z,9.03
2018-12-24T21:45:15.608Z,8.13
2018-12-24T21:47:48.450Z,7.77
2018-12-24T21:50:19.746Z,7.30
2018-12-24T21:52:51.071Z,6.93
2018-12-24T21:55:22.336Z,6.78
2018-12-24T21:57:54.421Z,6.30
2018-12-24T22:00:25.646Z,6.50
2018-12-24T22:02:56.932Z,6.83
2018-12-24T22:05:27.957Z,5.50
2018-12-24T22:07:59.045Z,5.60
2018-12-24T22:10:30.358Z,5.40
2018-12-24T22:13:01.806Z,5.97
2018-12-24T22:15:32.993Z,6.63
2018-12-24T22:18:04.494Z,6.47
2018-12-24T22:20:35.802Z,6.20
2018-12-24T22:23:07.080Z,7.20
2018-12-24T22:25:38.351Z,7.10
2018-12-24T22:28:09.448Z,5.47
2018-12-24T22:30:40.708Z,6.07
2018-12-24T22:33:12.752Z,7.33
2018-12-24T22:35:44.093Z,8.27
2018-12-24T22:38:15.275Z,7.00
2018-12-24T22:40:46.872Z,7.47
2018-12-24T22:43:18.021Z,7.00
2018-12-24T22:45:49.299Z,5.43
2018-12-24T22:48:20.365Z,5.00
2018-12-24T22:50:51.747Z,5.23
2018-12-24T22:53:22.888Z,5.23
2018-12-24T22:55:54.026Z,7.43
2018-12-24T22:58:25.178Z,5.60
2018-12-24T23:00:56.773Z,5.00
2018-12-24T23:03:27.839Z,6.20
2018-12-24T23:05:59.243Z,4.83
2018-12-24T23:08:30.640Z,5.73
2018-12-24T23:11:02.549Z,5.60
2018-12-24T23:13:33.630Z,6.37
2018-12-24T23:16:04.905Z,5.30
2018-12-24T23:18:36.268Z,4.00
2018-12-24T23:21:07.259Z,4.40
2018-12-24T23:23:38.403Z,3.50
2018-12-24T23:26:10.055Z,3.97
2018-12-24T23:28:41.275Z,3.50
2018-12-24T23:31:14.089Z,3.87
2018-12-24T23:33:45.369Z,3.77
2018-12-24T23:36:16.768Z,3.52
2018-12-24T23:38:47.978Z,3.83
2018-12-24T23:41:19.580Z,3.60
2018-12-24T23:43:50.710Z,3.98
2018-12-24T23:46:22.321Z,3.70
2018-12-24T23:48:57.639Z,3.73
2018-12-24T23:51:26.279Z,4.17
2018-12-24T23:53:57.428Z,4.57
2018-12-24T23:56:28.617Z,4.80
2018-12-24T23:58:59.806Z,4.30
